Venedy, Illinois
Current Conditions -  °F | °C
As of 8:55 AM on Friday 19 Dec 2014 (Local Time) from KSAR Reporting Station
Overcast Overcast  
Wind Chill: 26°   Ceiling: 3500
Heat Index: 31°   Visibility: 7mi
Dew Point: 28°   Wind: 5mph
Humidity: 88%   Direction: 60°ENE
Pressure: 30.31"   Gusts: NA
Location:  38.3664°N, 89.6016°W
Report Text: KSAR 191455Z AUTO 06004KT 7SM OVC035 M01/M02 A3031 RMK AO2 T10081025
Loading
Personal Weather Stations






























Interactive Weather Map New forecast layout! Learn more

10-Day Weather Forecast

Advertisements
Track Severe Weather on mobile